createdAt,value
2018-10-15T00:01:17.957Z,66.67
2018-10-15T00:03:46.600Z,66.84
2018-10-15T00:06:15.236Z,66.71
2018-10-15T00:08:43.853Z,66.48
2018-10-15T00:11:12.577Z,67.00
2018-10-15T00:13:41.214Z,67.36
2018-10-15T00:16:09.884Z,67.46
2018-10-15T00:18:38.557Z,67.50
2018-10-15T00:21:07.236Z,67.35
2018-10-15T00:23:35.958Z,67.40
2018-10-15T00:26:04.710Z,67.65
2018-10-15T00:28:33.348Z,67.90
2018-10-15T00:31:02.058Z,68.76
2018-10-15T00:33:30.711Z,68.03
2018-10-15T00:35:59.345Z,67.87
2018-10-15T00:38:28.028Z,68.28
2018-10-15T00:40:56.743Z,68.76
2018-10-15T00:43:25.523Z,68.61
2018-10-15T00:45:54.229Z,68.71
2018-10-15T00:48:22.875Z,68.28
2018-10-15T00:50:51.504Z,69.07
2018-10-15T00:53:20.154Z,68.40
2018-10-15T00:55:50.667Z,68.40
2018-10-15T00:58:19.424Z,68.79
2018-10-15T01:00:48.134Z,68.63
2018-10-15T01:03:16.808Z,69.18
2018-10-15T01:05:45.497Z,69.25
2018-10-15T01:08:14.127Z,69.17
2018-10-15T01:10:42.783Z,69.10
2018-10-15T01:13:11.462Z,69.18
2018-10-15T01:15:40.151Z,68.71
2018-10-15T01:18:08.806Z,69.13
2018-10-15T01:20:37.508Z,69.80
2018-10-15T01:23:06.225Z,70.30
2018-10-15T01:25:35.000Z,70.76
2018-10-15T01:28:03.660Z,71.11
2018-10-15T01:30:32.326Z,71.18
2018-10-15T01:33:00.992Z,71.33
2018-10-15T01:35:29.734Z,71.10
2018-10-15T01:37:58.702Z,71.31
2018-10-15T01:40:27.336Z,72.35
2018-10-15T01:42:56.051Z,74.20
2018-10-15T01:45:24.773Z,73.11
2018-10-15T01:47:53.603Z,72.29
2018-10-15T01:50:22.275Z,72.04
2018-10-15T01:52:51.249Z,71.15
2018-10-15T01:55:19.891Z,70.53
2018-10-15T01:57:48.561Z,70.36
2018-10-15T02:00:17.387Z,70.71
2018-10-15T02:02:46.098Z,70.50
2018-10-15T02:05:14.745Z,70.60
2018-10-15T02:07:43.409Z,70.40
2018-10-15T02:10:12.064Z,70.28
2018-10-15T02:12:40.948Z,69.65
2018-10-15T02:15:09.687Z,70.82
2018-10-15T02:17:38.417Z,71.51
2018-10-15T02:20:08.628Z,71.74
2018-10-15T02:22:37.533Z,71.48
2018-10-15T02:25:06.393Z,73.54
2018-10-15T02:27:35.090Z,73.69
2018-10-15T02:30:11.821Z,73.28
2018-10-15T02:32:41.135Z,73.18
2018-10-15T02:35:10.235Z,73.79
2018-10-15T02:37:40.048Z,73.53
2018-10-15T02:40:08.875Z,72.87
2018-10-15T02:42:37.707Z,72.00
2018-10-15T02:45:07.896Z,72.45
2018-10-15T02:47:36.780Z,73.52
2018-10-15T02:50:06.041Z,74.44
2018-10-15T02:52:34.689Z,74.31
2018-10-15T02:55:03.314Z,74.36
2018-10-15T02:57:32.008Z,74.81
2018-10-15T03:00:01.445Z,75.40
2018-10-15T03:02:30.401Z,75.59
2018-10-15T03:04:59.039Z,75.73
2018-10-15T03:07:28.642Z,74.94
2018-10-15T03:09:58.382Z,76.12
2018-10-15T03:12:27.065Z,74.95
2018-10-15T03:14:55.742Z,74.29
2018-10-15T03:17:24.442Z,75.21
2018-10-15T03:19:53.141Z,76.35
2018-10-15T03:22:21.826Z,76.66
2018-10-15T03:24:50.537Z,76.51
2018-10-15T03:27:19.302Z,75.82
2018-10-15T03:29:47.964Z,75.06
2018-10-15T03:32:16.634Z,76.15
2018-10-15T03:34:45.682Z,77.55
2018-10-15T03:37:14.477Z,77.86
2018-10-15T03:39:43.431Z,78.54
2018-10-15T03:42:12.363Z,78.92
2018-10-15T03:44:41.001Z,78.96
2018-10-15T03:47:09.686Z,79.01
2018-10-15T03:49:38.329Z,79.71
2018-10-15T03:52:07.114Z,79.69
2018-10-15T03:54:35.804Z,79.50
2018-10-15T03:57:05.669Z,80.07
2018-10-15T03:59:34.438Z,80.27
2018-10-15T04:02:03.417Z,80.55
2018-10-15T04:04:32.262Z,80.53
2018-10-15T04:07:00.880Z,80.56
2018-10-15T04:09:29.879Z,80.87
2018-10-15T04:11:58.533Z,81.04
2018-10-15T04:14:27.521Z,81.10
2018-10-15T04:16:56.191Z,80.99
2018-10-15T04:19:24.957Z,80.66
2018-10-15T04:21:53.712Z,80.85
2018-10-15T04:24:22.417Z,80.62
2018-10-15T04:26:51.093Z,80.79
2018-10-15T04:29:19.742Z,80.96
2018-10-15T04:31:48.450Z,80.60
2018-10-15T04:34:17.153Z,80.50
2018-10-15T04:36:45.844Z,80.02
2018-10-15T04:39:14.548Z,80.27
2018-10-15T04:41:44.322Z,79.28
2018-10-15T04:44:13.300Z,78.97
2018-10-15T04:46:42.270Z,78.66
2018-10-15T04:49:12.359Z,78.67
2018-10-15T04:51:41.026Z,77.72
2018-10-15T04:54:09.729Z,78.18
2018-10-15T04:56:38.462Z,77.86
2018-10-15T04:59:07.199Z,77.23
2018-10-15T05:01:35.928Z,75.99
2018-10-15T05:04:04.712Z,74.84
2018-10-15T05:06:33.552Z,74.33
2018-10-15T05:09:02.273Z,73.31
2018-10-15T05:11:31.017Z,72.25
2018-10-15T05:13:59.797Z,71.34
2018-10-15T05:16:28.689Z,71.80
2018-10-15T05:18:57.636Z,70.05
2018-10-15T05:21:26.475Z,68.76
2018-10-15T05:23:55.069Z,68.81
2018-10-15T05:26:24.067Z,68.63
2018-10-15T05:28:52.661Z,69.38
2018-10-15T05:31:21.359Z,67.32
2018-10-15T05:33:51.173Z,66.91
2018-10-15T05:36:19.934Z,66.50
2018-10-15T05:38:48.850Z,64.59
2018-10-15T05:41:17.583Z,65.05
2018-10-15T05:43:46.296Z,64.11
2018-10-15T05:46:15.232Z,62.64
2018-10-15T05:48:44.233Z,61.54
2018-10-15T05:51:12.993Z,62.07
2018-10-15T05:53:41.742Z,61.65
2018-10-15T05:56:10.713Z,61.59
2018-10-15T05:58:39.417Z,61.93
2018-10-15T06:01:08.430Z,61.74
2018-10-15T06:03:37.072Z,62.83
2018-10-15T06:06:06.007Z,61.22
2018-10-15T06:08:34.688Z,60.05
2018-10-15T06:11:03.435Z,58.89
2018-10-15T06:13:32.371Z,59.27
2018-10-15T06:16:01.220Z,59.45
2018-10-15T06:18:31.114Z,58.79
2018-10-15T06:20:59.828Z,58.99
2018-10-15T06:23:28.548Z,59.46
2018-10-15T06:25:57.298Z,59.50
2018-10-15T06:28:26.304Z,58.77
2018-10-15T06:30:55.497Z,59.04
2018-10-15T06:33:24.315Z,59.02
2018-10-15T06:35:53.308Z,59.21
2018-10-15T06:38:22.282Z,59.29
2018-10-15T06:40:51.028Z,57.56
2018-10-15T06:43:19.911Z,56.03
2018-10-15T06:45:48.647Z,56.53
2018-10-15T06:48:17.353Z,55.50
2018-10-15T06:50:46.629Z,57.20
2018-10-15T06:53:15.376Z,56.52
2018-10-15T06:55:44.328Z,55.42
2018-10-15T06:58:13.288Z,54.37
2018-10-15T07:00:42.316Z,55.00
2018-10-15T07:03:11.603Z,54.43
2018-10-15T07:05:40.320Z,53.96
2018-10-15T07:08:09.244Z,53.27
2018-10-15T07:10:38.478Z,52.51
2018-10-15T07:13:07.279Z,52.26
2018-10-15T07:15:36.201Z,51.27
2018-10-15T07:18:05.049Z,52.44
2018-10-15T07:20:34.050Z,52.89
2018-10-15T07:23:02.814Z,51.44
2018-10-15T07:25:33.130Z,51.70
2018-10-15T07:28:02.156Z,51.20
2018-10-15T07:30:32.420Z,50.14
2018-10-15T07:33:01.065Z,50.02
2018-10-15T07:35:29.891Z,47.97
2018-10-15T07:37:59.104Z,49.10
2018-10-15T07:40:28.295Z,49.26
2018-10-15T07:42:57.044Z,48.36
2018-10-15T07:45:26.318Z,48.30
2018-10-15T07:47:55.086Z,47.25
2018-10-15T07:50:23.776Z,46.00
2018-10-15T07:52:53.534Z,45.73
2018-10-15T07:55:22.409Z,46.08
2018-10-15T07:57:51.904Z,45.03
2018-10-15T08:00:24.365Z,44.55
2018-10-15T08:02:53.648Z,43.94
2018-10-15T08:05:22.963Z,44.04
2018-10-15T08:07:52.533Z,44.04
2018-10-15T08:10:21.723Z,42.56
2018-10-15T08:12:50.810Z,43.60
2018-10-15T08:15:21.215Z,42.56
2018-10-15T08:17:50.661Z,42.94
2018-10-15T08:20:20.546Z,42.38
2018-10-15T08:22:50.107Z,42.66
2018-10-15T08:25:19.183Z,43.14
2018-10-15T08:27:48.939Z,42.61
2018-10-15T08:30:19.198Z,42.58
2018-10-15T08:32:48.390Z,42.92
2018-10-15T08:35:17.301Z,44.44
2018-10-15T08:37:46.475Z,43.76
2018-10-15T08:40:17.492Z,42.87
2018-10-15T08:42:49.640Z,41.64
2018-10-15T08:45:22.562Z,41.49
2018-10-15T08:47:51.468Z,41.09
2018-10-15T08:50:20.582Z,41.07
2018-10-15T08:52:50.725Z,40.44
2018-10-15T08:55:19.976Z,42.62
2018-10-15T08:57:49.043Z,42.78
2018-10-15T09:00:21.205Z,41.83
2018-10-15T09:02:50.097Z,42.58
2018-10-15T09:05:18.822Z,42.60
2018-10-15T09:07:47.927Z,40.41
2018-10-15T09:10:18.094Z,41.45
2018-10-15T09:12:47.249Z,39.13
2018-10-15T09:15:19.860Z,39.59
2018-10-15T09:17:48.787Z,40.71
2018-10-15T09:20:17.809Z,40.51
2018-10-15T09:22:46.861Z,39.49
2018-10-15T09:25:17.737Z,37.70
2018-10-15T09:27:46.857Z,38.15
2018-10-15T09:30:18.185Z,37.22
2018-10-15T09:32:47.070Z,37.26
2018-10-15T09:35:16.977Z,36.90
2018-10-15T09:37:46.010Z,36.86
2018-10-15T09:40:17.099Z,37.59
2018-10-15T09:42:46.505Z,36.51
2018-10-15T09:45:16.642Z,36.80
2018-10-15T09:47:46.810Z,36.11
2018-10-15T09:50:15.511Z,36.06
2018-10-15T09:52:44.625Z,36.14
2018-10-15T09:55:14.446Z,35.96
2018-10-15T09:57:43.423Z,34.46
2018-10-15T10:00:18.395Z,34.21
2018-10-15T10:02:48.864Z,34.29
2018-10-15T10:05:17.995Z,34.90
2018-10-15T10:07:47.172Z,34.86
2018-10-15T10:10:16.135Z,33.83
2018-10-15T10:12:44.845Z,33.94
2018-10-15T10:15:14.450Z,33.56
2018-10-15T10:17:44.554Z,33.37
2018-10-15T10:20:13.928Z,33.13
2018-10-15T10:22:42.636Z,32.42
2018-10-15T10:25:12.474Z,32.67
2018-10-15T10:27:41.437Z,33.08
2018-10-15T10:30:11.401Z,32.48
2018-10-15T10:32:40.115Z,32.66
2018-10-15T10:35:30.214Z,32.71
2018-10-15T10:37:59.075Z,32.38
2018-10-15T10:40:27.756Z,30.83
2018-10-15T10:42:56.964Z,31.35
2018-10-15T10:45:26.195Z,30.58
2018-10-15T10:47:55.017Z,30.81
2018-10-15T10:50:24.006Z,28.95
2018-10-15T10:52:52.647Z,29.58
2018-10-15T10:55:21.863Z,30.62
2018-10-15T10:57:50.624Z,29.36
2018-10-15T11:00:20.051Z,30.24
2018-10-15T11:02:49.215Z,29.15
2018-10-15T11:05:17.809Z,28.22
2018-10-15T11:07:46.472Z,27.76
2018-10-15T11:10:15.222Z,28.28
2018-10-15T11:12:44.218Z,28.10
2018-10-15T11:15:12.905Z,27.81
2018-10-15T11:17:41.892Z,27.54
2018-10-15T11:20:11.032Z,28.73
2018-10-15T11:22:39.775Z,28.31
2018-10-15T11:25:08.697Z,27.81
2018-10-15T11:27:37.801Z,28.26
2018-10-15T11:30:10.121Z,29.31
2018-10-15T11:32:39.137Z,27.97
2018-10-15T11:35:08.540Z,27.18
2018-10-15T11:37:37.881Z,28.86
2018-10-15T11:40:06.696Z,28.27
2018-10-15T11:42:35.656Z,28.06
2018-10-15T11:45:04.390Z,27.52
2018-10-15T11:47:33.025Z,27.36
2018-10-15T11:50:02.699Z,26.84
2018-10-15T11:52:31.365Z,27.23
2018-10-15T11:55:00.189Z,27.80
2018-10-15T11:57:28.844Z,27.29
2018-10-15T11:59:57.700Z,26.98
2018-10-15T12:02:26.432Z,27.56
2018-10-15T12:04:55.390Z,27.04
2018-10-15T12:07:24.161Z,26.73
2018-10-15T12:09:52.836Z,27.35
2018-10-15T12:12:21.990Z,27.54
2018-10-15T12:14:50.960Z,26.31
2018-10-15T12:17:19.792Z,26.63
2018-10-15T12:19:48.881Z,27.77
2018-10-15T12:22:17.590Z,27.74
2018-10-15T12:24:46.427Z,28.03
2018-10-15T12:27:15.161Z,27.64
2018-10-15T12:29:44.107Z,26.67
2018-10-15T12:32:13.030Z,27.25
2018-10-15T12:34:42.012Z,27.04
2018-10-15T12:37:11.279Z,28.01
2018-10-15T12:39:40.036Z,27.58
2018-10-15T12:42:09.161Z,27.17
2018-10-15T12:44:38.001Z,28.08
2018-10-15T12:47:06.911Z,28.23
2018-10-15T12:49:35.655Z,28.52
2018-10-15T12:52:04.630Z,27.86
2018-10-15T12:54:33.354Z,29.41
2018-10-15T12:57:02.692Z,28.25
2018-10-15T12:59:31.501Z,27.69
2018-10-15T13:02:00.788Z,27.71
2018-10-15T13:04:30.834Z,28.40
2018-10-15T13:07:00.007Z,28.23
2018-10-15T13:09:28.965Z,28.53
2018-10-15T13:11:57.729Z,28.50
2018-10-15T13:14:26.485Z,28.73
2018-10-15T13:16:55.506Z,29.49
2018-10-15T13:19:24.573Z,29.60
2018-10-15T13:21:53.705Z,29.57
2018-10-15T13:24:22.540Z,30.68
2018-10-15T13:26:51.563Z,31.33
2018-10-15T13:29:20.438Z,31.50
2018-10-15T13:31:49.074Z,31.66
2018-10-15T13:34:18.071Z,32.01
2018-10-15T13:36:47.245Z,32.02
2018-10-15T13:39:15.997Z,31.95
2018-10-15T13:41:44.825Z,31.98
2018-10-15T13:44:13.802Z,32.53
2018-10-15T13:46:42.524Z,31.87
2018-10-15T13:49:11.398Z,32.65
2018-10-15T13:51:40.452Z,32.31
2018-10-15T13:54:09.690Z,32.07
2018-10-15T13:56:38.671Z,32.43
2018-10-15T13:59:07.419Z,34.05
2018-10-15T14:01:36.139Z,34.92
2018-10-15T14:04:05.719Z,35.19
2018-10-15T14:06:35.516Z,35.72
2018-10-15T14:09:06.358Z,37.25
2018-10-15T14:11:35.123Z,37.40
2018-10-15T14:14:04.018Z,37.63
2018-10-15T14:16:32.763Z,38.44
2018-10-15T14:19:01.784Z,38.15
2018-10-15T14:21:36.926Z,38.48
2018-10-15T14:24:05.905Z,38.69
2018-10-15T14:26:34.581Z,39.34
2018-10-15T14:29:03.448Z,40.30
2018-10-15T14:31:32.124Z,40.68
2018-10-15T14:34:00.881Z,40.47
2018-10-15T14:36:30.117Z,40.48
2018-10-15T14:38:58.881Z,40.85
2018-10-15T14:41:28.593Z,40.73
2018-10-15T14:43:57.494Z,41.77
2018-10-15T14:46:26.760Z,41.53
2018-10-15T14:48:55.840Z,42.31
2018-10-15T14:51:25.244Z,41.87
2018-10-15T14:53:54.233Z,42.21
2018-10-15T14:56:22.909Z,42.66
2018-10-15T14:58:51.604Z,42.23
2018-10-15T15:01:20.515Z,42.70
2018-10-15T15:03:49.197Z,42.76
2018-10-15T15:06:18.176Z,42.56
2018-10-15T15:08:46.841Z,43.29
2018-10-15T15:12:25.933Z,43.27
2018-10-15T15:14:55.012Z,44.33
2018-10-15T15:17:23.668Z,44.19
2018-10-15T15:19:52.613Z,44.46
2018-10-15T15:22:21.296Z,44.64
2018-10-15T15:24:50.199Z,44.99
2018-10-15T15:27:22.094Z,44.82
2018-10-15T15:29:50.746Z,44.50
2018-10-15T15:32:19.493Z,44.65
2018-10-15T15:34:48.235Z,45.59
2018-10-15T15:37:18.084Z,45.30
2018-10-15T15:39:46.862Z,46.38
2018-10-15T15:42:15.836Z,46.03
2018-10-15T15:44:44.542Z,46.36
2018-10-15T15:47:13.449Z,47.33
2018-10-15T15:49:42.148Z,47.83
2018-10-15T15:52:10.814Z,47.89
2018-10-15T15:54:40.041Z,47.86
2018-10-15T15:57:08.825Z,47.93
2018-10-15T16:13:11.368Z,50.08
2018-10-15T16:15:40.320Z,50.09
2018-10-15T16:18:09.032Z,50.19
2018-10-15T16:20:37.923Z,50.64
2018-10-15T16:23:06.850Z,50.37
2018-10-15T16:25:35.485Z,50.35
2018-10-15T16:28:04.190Z,50.99
2018-10-15T16:30:32.878Z,51.35
2018-10-15T16:33:01.553Z,51.39
2018-10-15T16:35:30.495Z,51.04
2018-10-15T16:37:59.171Z,51.16
2018-10-15T16:40:27.868Z,51.58
2018-10-15T16:42:56.778Z,51.29
2018-10-15T16:45:26.126Z,51.76
2018-10-15T16:47:54.778Z,51.83
2018-10-15T16:50:23.442Z,51.65
2018-10-15T16:52:52.432Z,52.05
2018-10-15T16:55:21.066Z,52.11
2018-10-15T16:57:50.051Z,52.24
2018-10-15T17:00:19.030Z,52.46
2018-10-15T17:02:48.053Z,52.50
2018-10-15T17:05:17.981Z,53.83
2018-10-15T17:07:46.980Z,53.84
2018-10-15T17:10:16.087Z,53.76
2018-10-15T17:12:45.095Z,54.54
2018-10-15T17:15:15.205Z,54.01
2018-10-15T17:17:43.986Z,54.65
2018-10-15T17:20:13.169Z,55.04
2018-10-15T17:22:42.878Z,54.80
2018-10-15T17:25:12.415Z,55.41
2018-10-15T17:27:41.886Z,55.22
2018-10-15T17:30:12.197Z,55.56
2018-10-15T17:32:41.599Z,56.12
2018-10-15T17:35:10.396Z,57.13
2018-10-15T17:37:40.160Z,57.24
2018-10-15T17:40:11.114Z,57.78
2018-10-15T17:42:40.375Z,57.38
2018-10-15T17:45:14.469Z,57.89
2018-10-15T17:47:44.029Z,57.82
2018-10-15T17:50:12.868Z,58.47
2018-10-15T17:52:41.617Z,58.19
2018-10-15T17:55:12.087Z,59.15
2018-10-15T17:57:40.994Z,59.07
2018-10-15T18:00:20.941Z,59.18
2018-10-15T18:02:49.681Z,59.05
2018-10-15T18:05:18.393Z,59.94
2018-10-15T18:07:47.373Z,59.81
2018-10-15T18:10:16.054Z,60.04
2018-10-15T18:12:44.897Z,59.86
2018-10-15T18:15:13.927Z,59.74
2018-10-15T18:17:42.629Z,59.70
2018-10-15T18:20:11.316Z,60.62
2018-10-15T18:22:39.984Z,61.01
2018-10-15T18:25:09.594Z,60.67
2018-10-15T18:27:38.329Z,60.96
2018-10-15T18:30:12.992Z,60.28
2018-10-15T18:32:42.550Z,60.60
2018-10-15T18:35:11.348Z,61.11
2018-10-15T18:37:40.048Z,60.83
2018-10-15T18:40:10.085Z,60.98
2018-10-15T18:42:38.951Z,60.73
2018-10-15T18:45:08.329Z,61.00
2018-10-15T18:47:37.767Z,60.92
2018-10-15T18:50:08.865Z,61.39
2018-10-15T18:52:37.581Z,61.23
2018-10-15T18:55:06.302Z,61.35
2018-10-15T18:57:35.066Z,61.23
2018-10-15T19:00:08.757Z,61.34
2018-10-15T19:02:37.647Z,61.29
2018-10-15T19:05:06.612Z,61.56
2018-10-15T19:07:35.297Z,61.18
2018-10-15T19:10:04.108Z,62.00
2018-10-15T19:12:33.012Z,61.37
2018-10-15T19:15:01.731Z,61.72
2018-10-15T19:17:30.417Z,62.18
2018-10-15T19:19:59.146Z,62.22
2018-10-15T19:22:27.815Z,61.80
2018-10-15T19:24:56.479Z,61.83
2018-10-15T19:27:25.481Z,62.55
2018-10-15T19:29:54.207Z,62.50
2018-10-15T19:32:23.156Z,62.84
2018-10-15T19:34:51.999Z,62.28
2018-10-15T19:37:20.701Z,62.85
2018-10-15T19:39:49.435Z,62.97
2018-10-15T19:42:18.228Z,63.06
2018-10-15T19:44:46.910Z,62.86
2018-10-15T19:47:16.001Z,63.19
2018-10-15T19:49:45.212Z,63.15
2018-10-15T19:52:14.617Z,63.77
2018-10-15T19:54:44.134Z,63.62
2018-10-15T19:57:13.084Z,63.62
2018-10-15T19:59:42.076Z,63.18
2018-10-15T20:02:11.149Z,63.35
2018-10-15T20:04:39.953Z,63.28
2018-10-15T20:07:09.288Z,62.40
2018-10-15T20:09:38.152Z,62.40
2018-10-15T20:12:07.293Z,62.91
2018-10-15T20:14:36.037Z,62.97
2018-10-15T20:17:05.041Z,63.41
2018-10-15T20:19:34.043Z,63.34
2018-10-15T20:22:03.273Z,63.21
2018-10-15T20:24:32.272Z,63.21
2018-10-15T20:27:00.986Z,63.83
2018-10-15T20:29:29.662Z,63.51
2018-10-15T20:31:58.595Z,63.08
2018-10-15T20:34:27.357Z,63.54
2018-10-15T20:36:56.469Z,63.31
2018-10-15T20:39:25.146Z,63.66
2018-10-15T20:41:53.871Z,63.49
2018-10-15T20:44:22.958Z,62.99
2018-10-15T20:46:52.017Z,63.05
2018-10-15T20:49:20.689Z,63.47
2018-10-15T20:51:49.672Z,63.55
2018-10-15T20:54:18.391Z,63.81
2018-10-15T20:56:47.089Z,63.79
2018-10-15T20:59:16.736Z,63.57
2018-10-15T21:01:46.851Z,63.45
2018-10-15T21:04:15.543Z,63.31
2018-10-15T21:06:44.518Z,63.23
2018-10-15T21:09:13.499Z,64.01
2018-10-15T21:11:42.226Z,63.22
2018-10-15T21:14:11.216Z,64.08
2018-10-15T21:16:40.114Z,63.44
2018-10-15T21:19:09.342Z,63.87
2018-10-15T21:21:38.860Z,64.34
2018-10-15T21:24:07.926Z,63.85
2018-10-15T21:26:36.858Z,64.36
2018-10-15T21:29:05.742Z,64.85
2018-10-15T21:31:34.426Z,64.99
2018-10-15T21:34:03.168Z,65.23
2018-10-15T21:36:31.941Z,65.27
2018-10-15T21:39:00.570Z,64.43
2018-10-15T21:41:29.230Z,64.66
2018-10-15T21:43:58.798Z,64.84
2018-10-15T21:46:28.445Z,64.58
2018-10-15T21:48:57.432Z,65.07
2018-10-15T21:51:26.173Z,64.33
2018-10-15T21:53:55.004Z,64.36
2018-10-15T21:56:23.703Z,64.09
2018-10-15T21:58:52.652Z,64.22
2018-10-15T22:01:21.730Z,63.78
2018-10-15T22:03:50.584Z,63.87
2018-10-15T22:06:19.559Z,63.18
2018-10-15T22:08:48.336Z,63.49
2018-10-15T22:11:17.053Z,63.24
2018-10-15T22:13:46.024Z,63.14
2018-10-15T22:16:15.030Z,63.08
2018-10-15T22:18:43.963Z,62.49
2018-10-15T22:21:13.050Z,62.68
2018-10-15T22:23:42.045Z,62.72
2018-10-15T22:26:10.763Z,62.01
2018-10-15T22:28:39.396Z,62.06
2018-10-15T22:31:08.050Z,62.21
2018-10-15T22:33:37.960Z,61.99
2018-10-15T22:36:06.789Z,61.23
2018-10-15T22:38:35.494Z,61.15
2018-10-15T22:41:04.476Z,61.46
2018-10-15T22:43:33.241Z,61.91
2018-10-15T22:46:01.892Z,61.44
2018-10-15T22:48:30.697Z,61.64
2018-10-15T22:50:59.621Z,61.44
2018-10-15T22:53:28.301Z,61.35
2018-10-15T22:55:57.115Z,61.30
2018-10-15T22:58:26.107Z,61.73
2018-10-15T23:00:54.900Z,62.10
2018-10-15T23:03:23.601Z,61.65
2018-10-15T23:05:52.325Z,61.69
2018-10-15T23:08:21.267Z,62.67
2018-10-15T23:10:50.350Z,62.73
2018-10-15T23:13:19.019Z,63.33
2018-10-15T23:15:47.978Z,63.58
2018-10-15T23:18:16.673Z,63.69
2018-10-15T23:20:45.423Z,64.53
2018-10-15T23:23:14.128Z,64.41
2018-10-15T23:25:43.758Z,64.68
2018-10-15T23:28:12.425Z,64.85
2018-10-15T23:30:41.137Z,65.85
2018-10-15T23:33:11.400Z,65.45
2018-10-15T23:35:40.116Z,66.10
2018-10-15T23:38:08.785Z,66.08
2018-10-15T23:40:37.466Z,66.59
2018-10-15T23:43:08.768Z,67.38
2018-10-15T23:45:37.473Z,68.06
2018-10-15T23:48:06.172Z,67.35
2018-10-15T23:50:34.854Z,67.99
2018-10-15T23:53:03.897Z,68.07
2018-10-15T23:55:33.071Z,68.78
2018-10-15T23:58:01.954Z,68.78
